createdAt,value
2019-01-22T00:05:00.248Z,96.10
2019-01-22T00:10:09.064Z,95.90
2019-01-22T00:15:15.790Z,95.90
2019-01-22T00:20:22.283Z,96.00
2019-01-22T00:25:28.414Z,96.00
2019-01-22T00:30:34.853Z,95.90
2019-01-22T00:35:40.942Z,96.00
2019-01-22T00:40:48.402Z,96.00
2019-01-22T00:45:54.481Z,96.10
2019-01-22T00:51:00.948Z,96.20
2019-01-22T00:56:07.133Z,95.80
2019-01-22T01:01:13.404Z,95.70
2019-01-22T01:06:19.563Z,95.80
2019-01-22T01:11:25.668Z,95.80
2019-01-22T01:16:31.762Z,96.10
2019-01-22T01:21:37.924Z,95.80
2019-01-22T01:26:43.990Z,95.40
2019-01-22T01:31:50.093Z,95.40
2019-01-22T01:36:56.117Z,95.30
2019-01-22T01:42:02.294Z,95.40
2019-01-22T01:47:08.468Z,95.20
2019-01-22T01:52:14.584Z,95.20
2019-01-22T01:57:20.644Z,95.10
2019-01-22T02:02:26.821Z,95.30
2019-01-22T02:07:32.986Z,95.30
2019-01-22T02:13:03.156Z,95.60
2019-01-22T02:18:29.504Z,95.40
2019-01-22T02:24:34.121Z,95.60
2019-01-22T02:30:11.964Z,95.20
2019-01-22T02:35:45.489Z,95.40
2019-01-22T02:41:25.575Z,95.10
2019-01-22T02:47:11.875Z,95.40
2019-01-22T02:53:06.893Z,95.40
2019-01-22T02:58:41.559Z,95.40
2019-01-22T03:04:28.491Z,95.30
2019-01-22T03:10:15.528Z,95.40
2019-01-22T03:16:10.550Z,95.00
2019-01-22T03:21:47.526Z,94.90
2019-01-22T03:27:36.118Z,94.70
2019-01-22T03:33:09.926Z,95.10
2019-01-22T03:38:58.210Z,95.00
2019-01-22T03:44:54.560Z,94.80
2019-01-22T03:50:23.352Z,94.80
2019-01-22T03:55:58.626Z,94.60
2019-01-22T04:01:17.484Z,94.80
2019-01-22T04:06:26.742Z,94.90
2019-01-22T04:11:39.867Z,94.80
2019-01-22T04:16:45.943Z,95.10
2019-01-22T04:21:52.092Z,94.90
2019-01-22T04:27:15.487Z,94.80
2019-01-22T04:32:37.238Z,94.80
2019-01-22T04:38:14.621Z,95.00
2019-01-22T04:43:54.414Z,94.80
2019-01-22T04:49:44.448Z,94.80
2019-01-22T04:55:24.793Z,94.70
2019-01-22T05:01:15.413Z,94.50
2019-01-22T05:06:45.223Z,94.70
2019-01-22T05:12:34.748Z,94.70
2019-01-22T05:18:24.360Z,94.80
2019-01-22T05:23:53.422Z,94.50
2019-01-22T05:29:46.038Z,94.70
2019-01-22T05:35:15.559Z,94.60
2019-01-22T05:41:10.461Z,94.80
2019-01-22T05:47:03.835Z,94.70
2019-01-22T05:52:38.789Z,94.50
2019-01-22T05:58:20.707Z,94.60
2019-01-22T06:04:16.484Z,94.30
2019-01-22T06:09:34.711Z,94.50
2019-01-22T06:15:09.269Z,94.40
2019-01-22T06:20:31.682Z,94.30
2019-01-22T06:26:02.224Z,94.40
2019-01-22T06:31:40.181Z,94.60
2019-01-22T06:37:18.413Z,94.50
2019-01-22T06:42:45.029Z,94.30
2019-01-22T06:48:14.990Z,94.30
2019-01-22T06:53:40.528Z,94.60
2019-01-22T06:59:43.051Z,94.70
2019-01-22T07:05:00.753Z,94.50
2019-01-22T07:10:40.967Z,94.60
2019-01-22T07:16:33.647Z,94.30
2019-01-22T07:22:29.362Z,94.40
2019-01-22T07:28:12.727Z,94.70
2019-01-22T07:33:52.767Z,94.60
2019-01-22T07:39:13.554Z,94.30
2019-01-22T07:44:57.785Z,94.10
2019-01-22T07:50:53.424Z,94.50
2019-01-22T07:56:33.597Z,94.00
2019-01-22T08:02:32.075Z,93.60
2019-01-22T08:08:34.187Z,93.50
2019-01-22T08:14:08.382Z,93.50
2019-01-22T08:19:39.279Z,93.80
2019-01-22T08:25:32.561Z,94.00
2019-01-22T08:31:18.056Z,93.90
2019-01-22T08:37:04.032Z,93.80
2019-01-22T08:42:52.075Z,93.80
2019-01-22T08:48:50.831Z,93.90
2019-01-22T08:54:32.033Z,94.40
2019-01-22T09:00:16.669Z,94.40
2019-01-22T09:05:34.717Z,94.70
2019-01-22T09:11:20.269Z,94.90
2019-01-22T09:16:50.500Z,94.90
2019-01-22T09:22:42.029Z,94.70
2019-01-22T09:28:15.465Z,94.90
2019-01-22T09:33:49.707Z,95.20
2019-01-22T09:38:55.751Z,95.40
2019-01-22T09:44:01.991Z,96.20
2019-01-22T09:49:08.082Z,95.60
2019-01-22T09:54:14.163Z,96.00
2019-01-22T09:59:21.286Z,96.20
2019-01-22T10:04:27.490Z,96.50
2019-01-22T10:09:33.714Z,96.20
2019-01-22T10:14:39.927Z,96.00
2019-01-22T10:19:46.008Z,96.20
2019-01-22T10:24:52.055Z,96.00
2019-01-22T10:29:58.049Z,96.00
2019-01-22T10:35:04.381Z,95.80
2019-01-22T10:40:11.816Z,96.00
2019-01-22T10:45:18.652Z,95.90
2019-01-22T10:50:24.879Z,95.80
2019-01-22T10:55:36.229Z,95.80
2019-01-22T11:00:38.872Z,96.00
2019-01-22T11:05:45.073Z,95.60
2019-01-22T11:10:52.088Z,95.30
2019-01-22T11:15:58.242Z,94.90
2019-01-22T11:21:04.305Z,94.80
2019-01-22T11:26:10.301Z,94.70
2019-01-22T11:31:16.610Z,94.50
2019-01-22T11:36:23.245Z,94.50
2019-01-22T11:41:29.314Z,94.30
2019-01-22T11:46:35.486Z,94.20
2019-01-22T11:51:41.572Z,94.00
2019-01-22T11:56:47.623Z,94.00
2019-01-22T12:01:53.724Z,94.00
2019-01-22T12:06:59.907Z,93.80
2019-01-22T12:12:06.272Z,93.30
2019-01-22T12:17:12.387Z,93.30
2019-01-22T12:22:18.514Z,92.90
2019-01-22T12:27:24.725Z,92.70
2019-01-22T12:32:30.800Z,92.40
2019-01-22T12:37:36.891Z,91.70
2019-01-22T12:42:43.132Z,91.30
2019-01-22T12:47:49.314Z,91.00
2019-01-22T12:52:55.370Z,89.70
2019-01-22T12:58:01.479Z,90.50
2019-01-22T13:03:07.937Z,91.20
2019-01-22T13:08:14.008Z,91.10
2019-01-22T13:13:20.081Z,91.30
2019-01-22T13:18:26.298Z,91.60
2019-01-22T13:23:32.463Z,91.80
2019-01-22T13:28:38.518Z,92.20
2019-01-22T13:33:44.807Z,92.40
2019-01-22T13:38:50.975Z,92.60
2019-01-22T13:43:57.076Z,92.90
2019-01-22T13:49:03.166Z,93.10
2019-01-22T13:54:09.417Z,93.10
2019-01-22T13:59:15.505Z,93.30
2019-01-22T14:04:21.584Z,93.40
2019-01-22T14:09:27.718Z,93.00
2019-01-22T14:14:33.932Z,92.30
2019-01-22T14:19:40.009Z,90.60
2019-01-22T14:24:46.206Z,91.30
2019-01-22T14:29:52.345Z,91.60
2019-01-22T14:34:58.525Z,90.20
2019-01-22T14:40:05.281Z,90.00
2019-01-22T14:45:13.461Z,91.30
2019-01-22T14:50:21.495Z,91.70
2019-01-22T14:55:27.628Z,92.50
2019-01-22T15:00:33.809Z,91.70
2019-01-22T15:05:39.967Z,92.30
2019-01-22T15:10:46.152Z,92.60
2019-01-22T15:15:52.266Z,93.20
2019-01-22T15:20:58.452Z,93.40
2019-01-22T15:26:04.575Z,93.50
2019-01-22T15:31:10.667Z,93.80
2019-01-22T15:36:16.731Z,94.10
2019-01-22T15:41:22.821Z,93.90
2019-01-22T15:46:28.992Z,94.30
2019-01-22T15:51:35.064Z,94.60
2019-01-22T15:56:46.414Z,95.00
2019-01-22T16:01:48.912Z,95.30
2019-01-22T16:06:55.976Z,95.20
2019-01-22T16:12:02.218Z,95.00
2019-01-22T16:17:08.396Z,95.20
2019-01-22T16:22:14.522Z,95.30
2019-01-22T16:27:20.802Z,95.30
2019-01-22T16:32:26.925Z,95.70
2019-01-22T16:37:33.107Z,95.40
2019-01-22T16:42:39.174Z,95.50
2019-01-22T16:47:45.379Z,95.20
2019-01-22T16:52:51.600Z,95.50
2019-01-22T16:57:57.826Z,95.60
2019-01-22T17:03:04.333Z,95.40
2019-01-22T17:08:10.429Z,95.60
2019-01-22T17:13:16.573Z,95.80
2019-01-22T17:18:22.759Z,95.20
2019-01-22T17:23:28.806Z,95.30
2019-01-22T17:28:35.078Z,95.80
2019-01-22T17:33:45.684Z,95.40
2019-01-22T17:38:51.757Z,95.70
2019-01-22T17:43:57.960Z,95.70
2019-01-22T17:49:04.295Z,95.80
2019-01-22T17:54:10.438Z,95.90
2019-01-22T17:59:16.584Z,95.80
2019-01-22T18:04:22.656Z,95.80
2019-01-22T18:09:28.794Z,95.90
2019-01-22T18:14:34.923Z,95.90
2019-01-22T18:19:40.979Z,95.70
2019-01-22T18:24:47.174Z,95.50
2019-01-22T18:29:53.310Z,95.30
2019-01-22T18:34:59.469Z,95.50
2019-01-22T18:40:07.293Z,95.70
2019-01-22T18:45:15.171Z,95.80
2019-01-22T18:50:22.764Z,96.00
2019-01-22T18:55:28.891Z,95.70
2019-01-22T19:00:34.994Z,95.50
2019-01-22T19:05:41.081Z,95.70
2019-01-22T19:10:47.144Z,95.50
2019-01-22T19:15:53.331Z,95.50
2019-01-22T19:20:59.474Z,95.60
2019-01-22T19:26:05.678Z,95.20
2019-01-22T19:31:11.878Z,95.50
2019-01-22T19:36:18.011Z,95.60
2019-01-22T19:41:24.209Z,95.40
2019-01-22T19:46:30.293Z,95.40
2019-01-22T19:51:36.481Z,95.40
2019-01-22T19:56:42.612Z,95.00
2019-01-22T20:01:48.799Z,94.90
2019-01-22T20:06:54.899Z,95.10
2019-01-22T20:12:00.981Z,95.40
2019-01-22T20:17:07.108Z,95.40
2019-01-22T20:22:13.299Z,95.30
2019-01-22T20:27:19.396Z,94.80
2019-01-22T20:32:25.483Z,95.10
2019-01-22T20:37:31.722Z,95.20
2019-01-22T20:42:37.907Z,94.90
2019-01-22T20:47:43.965Z,94.80
2019-01-22T20:52:50.110Z,94.90
2019-01-22T20:57:57.155Z,95.00
2019-01-22T21:03:03.331Z,95.10
2019-01-22T21:08:09.496Z,94.70
2019-01-22T21:13:15.638Z,94.90
2019-01-22T21:18:21.835Z,94.40
2019-01-22T21:23:28.095Z,94.60
2019-01-22T21:28:34.237Z,94.40
2019-01-22T21:33:40.438Z,94.40
2019-01-22T21:38:46.530Z,94.70
2019-01-22T21:43:52.699Z,94.50
2019-01-22T21:48:59.340Z,94.20
2019-01-22T21:54:05.650Z,94.40
2019-01-22T21:59:11.830Z,94.30
2019-01-22T22:04:17.930Z,94.60
2019-01-22T22:09:23.978Z,94.20
2019-01-22T22:14:31.083Z,94.60
2019-01-22T22:19:37.138Z,94.40
2019-01-22T22:24:43.309Z,94.20
2019-01-22T22:29:49.513Z,94.20
2019-01-22T22:34:55.673Z,94.10
2019-01-22T22:40:01.761Z,94.00
2019-01-22T22:45:08.762Z,94.10
2019-01-22T22:50:18.427Z,94.20
2019-01-22T22:55:24.601Z,94.20
2019-01-22T23:00:43.356Z,94.10
2019-01-22T23:05:51.244Z,93.90
2019-01-22T23:10:57.345Z,93.90
2019-01-22T23:16:03.471Z,94.30
2019-01-22T23:21:09.807Z,94.00
2019-01-22T23:26:15.967Z,93.80
2019-01-22T23:31:22.131Z,93.80
2019-01-22T23:36:28.244Z,93.90
2019-01-22T23:41:34.388Z,93.90
2019-01-22T23:46:40.584Z,94.00
2019-01-22T23:51:46.765Z,93.90
2019-01-22T23:56:52.872Z,93.70
